Time;durP1;ratioP1;P1;durP2;ratioP2;P2;SDS_P1;SDS_P2;PMS_P1;PMS_P2;Temp;Humidity;BMP_temperature;BMP_pressure;BME280_temperature;BME280_humidity;BME280_pressure;Samples;Min_cycle;Max_cycle;Signal;HPM_P1;HPM_P2
2023/10/18 00:00:25;;;;;;;8.00;4.27;;;6.10;99.90;;;;;;5012580;28;20408;-71
2023/10/18 00:02:52;;;;;;;8.67;4.67;;;6.00;99.90;;;;;;5011356;28;20168;-70
2023/10/18 00:05:20;;;;;;;4.47;4.07;;;6.00;99.90;;;;;;4994847;28;20461;-71
2023/10/18 00:07:46;;;;;;;5.00;3.70;;;6.10;99.90;;;;;;4994779;28;20984;-70
2023/10/18 00:10:12;;;;;;;4.00;3.60;;;6.10;99.90;;;;;;5012202;28;20427;-71
2023/10/18 00:12:39;;;;;;;4.47;3.00;;;6.10;99.90;;;;;;4994538;28;20637;-70
2023/10/18 00:15:06;;;;;;;4.00;3.40;;;6.10;99.90;;;;;;5012126;28;20446;-70
2023/10/18 00:17:32;;;;;;;5.47;4.07;;;6.10;99.90;;;;;;5012135;28;20450;-70
2023/10/18 00:19:57;;;;;;;4.83;3.23;;;6.10;99.90;;;;;;5012313;28;20793;-71
2023/10/18 00:22:23;;;;;;;4.27;3.43;;;6.00;99.90;;;;;;4994751;28;20461;-72
2023/10/18 00:24:49;;;;;;;7.33;5.90;;;6.10;99.90;;;;;;5012354;28;20195;-70
2023/10/18 00:27:14;;;;;;;5.30;3.97;;;6.10;99.90;;;;;;5014178;28;20195;-70
2023/10/18 00:29:40;;;;;;;3.90;3.07;;;6.10;99.90;;;;;;5016109;28;20168;-72
2023/10/18 00:32:06;;;;;;;4.80;3.60;;;6.00;99.90;;;;;;4998321;28;20218;-71
2023/10/18 00:34:32;;;;;;;4.53;3.80;;;6.00;99.90;;;;;;5016024;28;20183;-71
2023/10/18 00:36:59;;;;;;;4.17;3.50;;;6.00;99.90;;;;;;5015792;28;20446;-70
2023/10/18 00:39:27;;;;;;;4.13;3.47;;;5.90;99.90;;;;;;5015876;28;20411;-70
2023/10/18 00:42:23;;;;;;;4.43;3.50;;;5.90;99.90;;;;;;5015757;28;20441;-70
2023/10/18 00:44:41;;;;;;;5.00;3.37;;;5.90;99.90;;;;;;5015594;28;20415;-71
2023/10/18 00:47:10;;;;;;;3.90;3.60;;;5.90;99.90;;;;;;5015662;28;20578;-71
2023/10/18 00:49:36;;;;;;;4.70;3.37;;;5.80;99.90;;;;;;5015703;28;20171;-71
2023/10/18 00:52:01;;;;;;;6.03;3.60;;;5.90;99.90;;;;;;4998059;28;20411;-72
2023/10/18 00:54:28;;;;;;;4.77;3.77;;;5.80;99.90;;;;;;5015655;28;20183;-70
2023/10/18 00:56:55;;;;;;;5.40;3.80;;;5.80;99.90;;;;;;5015483;28;20283;-71
2023/10/18 00:59:21;;;;;;;5.20;3.43;;;5.80;99.90;;;;;;5015498;28;20913;-70
2023/10/18 01:02:02;;;;;;;4.40;3.40;;;5.90;99.90;;;;;;5015396;28;20494;-71
2023/10/18 01:04:29;;;;;;;7.13;2.97;;;5.90;99.90;;;;;;5014246;28;20698;-72
2023/10/18 01:06:57;;;;;;;4.20;3.30;;;5.90;99.90;;;;;;5015096;28;20837;-70
2023/10/18 01:09:24;;;;;;;4.17;3.57;;;5.90;99.90;;;;;;5015422;28;20453;-71
2023/10/18 01:11:51;;;;;;;3.80;3.10;;;5.90;99.90;;;;;;5015280;28;20411;-70
2023/10/18 01:14:17;;;;;;;3.10;2.57;;;5.90;99.90;;;;;;5015229;28;20494;-70
2023/10/18 01:16:44;;;;;;;3.77;3.20;;;6.00;99.90;;;;;;5015172;28;20466;-71
2023/10/18 01:19:13;;;;;;;3.80;3.30;;;6.00;99.90;;;;;;4997321;28;20466;-70
2023/10/18 01:21:42;;;;;;;4.00;2.90;;;6.10;99.90;;;;;;4997501;28;20930;-70
2023/10/18 01:24:14;;;;;;;3.77;3.37;;;6.00;99.90;;;;;;5014234;28;20418;-70
2023/10/18 01:26:40;;;;;;;10.87;3.00;;;6.10;99.90;;;;;;5014212;28;20988;-70
2023/10/18 01:29:09;;;;;;;4.97;3.33;;;6.10;99.90;;;;;;5014792;28;20403;-70
2023/10/18 01:31:36;;;;;;;5.33;2.70;;;6.10;99.90;;;;;;5014952;28;20834;-71
2023/10/18 01:34:05;;;;;;;3.93;2.87;;;6.20;99.90;;;;;;5014961;28;20828;-70
2023/10/18 01:36:33;;;;;;;10.33;7.33;;;6.20;99.90;;;;;;5014636;28;20825;-72
2023/10/18 01:38:59;;;;;;;5.73;3.10;;;6.20;99.90;;;;;;5014099;28;20472;-71
2023/10/18 01:41:34;;;;;;;4.13;3.50;;;6.20;99.90;;;;;;5014322;28;20415;-72
2023/10/18 01:44:10;;;;;;;3.40;2.93;;;6.10;99.90;;;;;;5014587;28;20417;-70
2023/10/18 01:46:48;;;;;;;3.83;3.30;;;6.10;99.90;;;;;;4997167;28;20541;-71
2023/10/18 01:49:19;;;;;;;3.33;3.03;;;6.10;99.90;;;;;;5014585;28;20426;-69
2023/10/18 01:51:47;;;;;;;5.30;2.43;;;6.20;99.90;;;;;;5014583;28;20418;-71
2023/10/18 01:54:13;;;;;;;5.03;3.10;;;6.20;99.90;;;;;;5014543;28;20949;-71
2023/10/18 01:56:41;;;;;;;2.83;2.17;;;6.20;99.90;;;;;;5013053;28;20445;-72
2023/10/18 01:59:08;;;;;;;3.70;3.17;;;6.20;99.90;;;;;;5014317;28;20411;-73
2023/10/18 02:01:34;;;;;;;6.70;3.37;;;6.20;99.90;;;;;;5014349;28;20865;-70
2023/10/18 02:04:01;;;;;;;2.47;2.27;;;6.20;99.90;;;;;;4996784;28;20415;-71
2023/10/18 02:06:27;;;;;;;3.07;2.53;;;6.20;99.90;;;;;;5014191;28;20898;-72
2023/10/18 02:08:53;;;;;;;3.40;2.70;;;6.20;99.90;;;;;;5014312;28;20487;-70
2023/10/18 02:11:19;;;;;;;2.83;2.60;;;6.20;99.90;;;;;;4996650;28;20260;-70
2023/10/18 02:13:44;;;;;;;3.13;2.53;;;6.10;99.90;;;;;;5012928;28;20411;-70
2023/10/18 02:16:15;;;;;;;2.53;2.30;;;6.10;99.90;;;;;;5014039;28;20679;-70
2023/10/18 02:18:41;;;;;;;4.73;3.40;;;6.10;99.90;;;;;;5014155;28;20254;-73
2023/10/18 02:21:08;;;;;;;4.67;3.10;;;6.10;99.90;;;;;;4996199;28;20518;-73
2023/10/18 02:23:36;;;;;;;4.30;2.50;;;6.10;99.90;;;;;;5013989;28;20411;-72
2023/10/18 02:26:09;;;;;;;2.73;2.37;;;6.00;99.90;;;;;;5013286;28;21015;-73
2023/10/18 02:28:36;;;;;;;3.37;2.90;;;6.10;99.90;;;;;;5013818;28;20403;-70
2023/10/18 02:31:11;;;;;;;2.53;2.33;;;6.00;99.90;;;;;;5013690;28;20414;-70
2023/10/18 02:33:36;;;;;;;4.07;2.93;;;6.00;99.90;;;;;;5013748;28;20411;-71
2023/10/18 02:36:06;;;;;;;4.27;3.83;;;6.00;99.90;;;;;;5013558;28;20545;-70
2023/10/18 02:38:33;;;;;;;2.97;2.73;;;6.00;99.90;;;;;;4996076;28;20187;-70
2023/10/18 02:41:01;;;;;;;3.67;2.70;;;6.10;99.90;;;;;;5013467;28;20902;-71
2023/10/18 02:43:29;;;;;;;3.23;2.90;;;6.10;99.90;;;;;;5012365;28;20423;-70
2023/10/18 02:45:54;;;;;;;7.47;2.53;;;6.10;99.90;;;;;;5013233;28;20546;-71
2023/10/18 02:48:24;;;;;;;3.73;2.47;;;6.20;99.90;;;;;;5013291;28;20894;-70
2023/10/18 02:50:51;;;;;;;6.53;2.90;;;6.10;99.90;;;;;;4995747;28;20280;-70
2023/10/18 02:53:17;;;;;;;5.60;3.40;;;6.10;99.90;;;;;;5012369;28;20898;-70
2023/10/18 02:55:56;;;;;;;4.47;3.30;;;6.20;99.90;;;;;;5012301;28;20415;-70
2023/10/18 02:58:27;;;;;;;6.00;3.47;;;6.10;99.90;;;;;;4995662;28;20415;-70
2023/10/18 03:00:54;;;;;;;3.50;2.67;;;6.20;99.90;;;;;;5013194;28;20400;-70
2023/10/18 03:03:22;;;;;;;2.80;2.60;;;6.30;99.90;;;;;;4996208;28;20926;-73
2023/10/18 03:05:47;;;;;;;3.83;2.60;;;6.40;99.90;;;;;;5013118;28;20521;-70
2023/10/18 03:08:13;;;;;;;4.93;2.80;;;6.40;99.90;;;;;;5013295;28;20426;-71
2023/10/18 03:10:44;;;;;;;2.80;2.10;;;6.40;99.90;;;;;;5012867;28;20644;-70
2023/10/18 03:13:13;;;;;;;2.83;2.30;;;6.50;99.90;;;;;;5013012;28;20251;-70
2023/10/18 03:18:25;;;;;;;4.13;2.87;;;6.50;99.90;;;;;;4972326;28;20746;-70
2023/10/18 03:20:58;;;;;;;3.83;3.17;;;6.50;99.90;;;;;;5012727;28;20430;-70
2023/10/18 03:23:26;;;;;;;3.40;2.70;;;6.60;99.90;;;;;;5012895;28;20152;-70
2023/10/18 03:26:03;;;;;;;3.90;3.00;;;6.60;99.90;;;;;;5012888;28;20447;-70
2023/10/18 03:28:35;;;;;;;4.33;2.60;;;6.60;99.90;;;;;;5011510;28;20483;-71
2023/10/18 03:31:21;;;;;;;3.07;2.70;;;6.60;99.90;;;;;;5011767;28;20415;-71
2023/10/18 03:34:02;;;;;;;3.20;2.50;;;6.60;99.90;;;;;;5012787;28;20411;-71
2023/10/18 03:36:31;;;;;;;3.23;2.47;;;6.60;99.90;;;;;;5012582;28;20937;-70
2023/10/18 03:39:00;;;;;;;3.07;2.77;;;6.70;99.90;;;;;;5012526;28;20418;-70
2023/10/18 03:41:33;;;;;;;9.70;2.87;;;6.60;99.90;;;;;;4995189;28;20961;-70
2023/10/18 03:44:08;;;;;;;2.90;2.60;;;6.50;99.90;;;;;;5012627;28;20391;-70
2023/10/18 03:46:47;;;;;;;4.47;3.17;;;6.50;99.90;;;;;;5012370;28;20462;-70
2023/10/18 03:49:31;;;;;;;4.43;2.80;;;6.50;99.90;;;;;;4994870;28;20421;-73
2023/10/18 03:52:01;;;;;;;8.00;2.70;;;6.50;99.90;;;;;;4994664;28;20407;-71
2023/10/18 03:54:43;;;;;;;3.23;2.77;;;6.40;99.90;;;;;;4994786;28;20422;-72
2023/10/18 03:57:11;;;;;;;5.23;2.43;;;6.50;99.90;;;;;;5012522;28;21028;-70
2023/10/18 03:59:40;;;;;;;8.23;2.73;;;6.50;99.90;;;;;;4994550;28;20411;-74
2023/10/18 04:02:16;;;;;;;5.60;3.33;;;6.40;99.90;;;;;;5010565;28;20414;-70
2023/10/18 04:04:45;;;;;;;3.77;2.60;;;6.40;99.90;;;;;;5011084;28;20424;-70
2023/10/18 04:07:17;;;;;;;8.40;2.93;;;6.40;99.90;;;;;;4994649;28;20447;-70
2023/10/18 04:10:03;;;;;;;10.53;2.60;;;6.40;99.90;;;;;;4994940;28;20411;-73
2023/10/18 04:12:29;;;;;;;7.60;2.37;;;6.40;99.90;;;;;;4994988;28;20411;-71
2023/10/18 04:15:21;;;;;;;3.90;3.00;;;6.40;99.90;;;;;;4994643;28;20430;-71
2023/10/18 04:17:49;;;;;;;7.17;3.97;;;6.40;99.90;;;;;;5012087;28;20195;-70
2023/10/18 04:22:47;;;;;;;2.83;2.47;;;6.50;99.90;;;;;;5012388;28;20407;-70
2023/10/18 04:25:30;;;;;;;3.43;2.63;;;6.50;99.90;;;;;;5011990;28;20976;-70
2023/10/18 04:27:59;;;;;;;3.20;2.90;;;6.40;99.90;;;;;;4994298;28;20195;-70
2023/10/18 04:30:25;;;;;;;3.20;2.90;;;6.40;99.90;;;;;;4994282;28;20435;-70
2023/10/18 04:32:59;;;;;;;3.23;2.60;;;6.50;99.90;;;;;;5012292;28;20408;-73
2023/10/18 04:35:51;;;;;;;4.43;2.90;;;6.50;99.90;;;;;;5011110;28;20415;-70
2023/10/18 04:38:30;;;;;;;2.27;2.00;;;6.60;99.90;;;;;;4994292;28;20430;-70
2023/10/18 04:43:32;;;;;;;3.13;2.33;;;6.70;99.90;;;;;;5012305;28;20969;-70
2023/10/18 04:46:04;;;;;;;4.43;3.00;;;6.80;99.90;;;;;;4994222;28;20455;-71
2023/10/18 04:54:15;;;;;;;3.63;2.93;;;6.90;99.90;;;;;;5012048;28;20821;-74
2023/10/18 04:56:44;;;;;;;4.90;2.90;;;6.90;99.90;;;;;;5011736;28;20459;-70
2023/10/18 04:59:25;;;;;;;3.67;3.03;;;7.00;99.90;;;;;;4994075;28;20415;-74
2023/10/18 05:04:29;;;;;;;3.97;3.23;;;7.00;99.90;;;;;;5011969;28;20416;-71
2023/10/18 05:06:58;;;;;;;6.53;4.47;;;7.10;99.90;;;;;;4994210;28;20985;-71
2023/10/18 05:09:34;;;;;;;8.67;4.57;;;7.00;99.90;;;;;;4994044;28;20419;-70
2023/10/18 05:12:07;;;;;;;4.77;3.20;;;7.00;99.90;;;;;;5012892;28;20490;-73
2023/10/18 05:14:42;;;;;;;4.10;3.47;;;7.00;99.90;;;;;;4997641;28;20411;-70
2023/10/18 05:17:11;;;;;;;3.90;2.80;;;7.00;99.90;;;;;;5015234;28;20430;-70
2023/10/18 05:19:41;;;;;;;4.40;3.20;;;6.90;99.90;;;;;;5015005;28;20407;-74
2023/10/18 05:22:08;;;;;;;4.90;3.00;;;6.90;99.90;;;;;;5015221;28;20910;-72
2023/10/18 05:24:37;;;;;;;3.10;2.37;;;6.90;99.90;;;;;;5015277;28;20418;-74
2023/10/18 05:27:19;;;;;;;5.73;3.17;;;6.90;99.90;;;;;;5015037;28;20826;-73
2023/10/18 05:29:52;;;;;;;3.17;2.87;;;6.90;99.90;;;;;;5015066;28;20494;-73
2023/10/18 05:37:50;;;;;;;3.47;2.83;;;6.90;99.90;;;;;;5015171;28;20972;-73
2023/10/18 05:43:03;;;;;;;6.00;2.60;;;6.90;99.90;;;;;;5015031;28;20405;-71
2023/10/18 05:45:32;;;;;;;3.40;3.20;;;6.90;99.90;;;;;;5014507;28;20529;-71
2023/10/18 05:48:03;;;;;;;7.53;3.10;;;6.80;99.90;;;;;;5014447;28;20423;-71
2023/10/18 05:50:34;;;;;;;3.70;3.30;;;6.80;99.90;;;;;;5014449;28;20411;-70
2023/10/18 05:53:06;;;;;;;3.80;3.17;;;6.80;99.90;;;;;;5014604;28;20392;-69
2023/10/18 05:55:32;;;;;;;5.30;3.13;;;6.70;99.90;;;;;;5014442;28;20813;-70
2023/10/18 05:57:59;;;;;;;3.80;3.17;;;6.70;99.90;;;;;;5013482;28;20447;-70
2023/10/18 06:00:25;;;;;;;3.53;3.03;;;6.70;99.90;;;;;;5014294;28;20408;-72
2023/10/18 06:02:52;;;;;;;4.07;3.10;;;6.70;99.90;;;;;;5014369;28;20906;-73
2023/10/18 06:05:19;;;;;;;3.80;3.27;;;6.70;99.90;;;;;;5014327;28;20204;-73
2023/10/18 06:07:46;;;;;;;6.50;3.37;;;6.70;99.90;;;;;;5014363;28;20775;-72
2023/10/18 06:10:17;;;;;;;4.53;2.80;;;6.60;99.90;;;;;;5012610;28;20419;-70
2023/10/18 06:12:48;;;;;;;6.57;3.97;;;6.60;99.90;;;;;;5014439;28;20407;-73
2023/10/18 06:15:16;;;;;;;4.47;3.57;;;6.60;99.90;;;;;;5014255;28;20397;-70
2023/10/18 06:17:52;;;;;;;4.90;3.10;;;6.50;99.90;;;;;;5012728;28;20443;-70
2023/10/18 06:20:27;;;;;;;4.77;3.60;;;6.60;99.90;;;;;;5012716;28;20426;-72
2023/10/18 06:23:09;;;;;;;4.33;3.37;;;6.60;99.90;;;;;;5012535;28;20940;-70
2023/10/18 06:25:36;;;;;;;3.23;2.80;;;6.60;99.90;;;;;;4996747;28;20458;-70
2023/10/18 06:28:06;;;;;;;4.50;3.90;;;6.70;99.90;;;;;;5013289;28;20458;-72
2023/10/18 06:30:39;;;;;;;4.53;3.60;;;6.80;99.90;;;;;;5012733;28;20496;-70
2023/10/18 06:33:07;;;;;;;4.60;3.37;;;6.80;99.90;;;;;;5013788;28;20407;-70
2023/10/18 06:35:51;;;;;;;4.27;3.07;;;7.00;99.90;;;;;;5013650;28;20901;-70
2023/10/18 06:38:23;;;;;;;5.60;2.70;;;7.10;99.90;;;;;;5013709;28;20411;-70
2023/10/18 06:40:51;;;;;;;3.93;3.23;;;7.20;99.90;;;;;;5013623;28;20974;-73
2023/10/18 06:43:18;;;;;;;4.77;3.70;;;7.20;99.90;;;;;;4996227;28;20423;-73
2023/10/18 06:45:43;;;;;;;5.67;3.50;;;7.30;99.90;;;;;;5013599;28;21110;-73
2023/10/18 06:48:09;;;;;;;4.97;3.50;;;7.30;99.90;;;;;;5013506;28;20422;-73
2023/10/18 06:50:35;;;;;;;7.13;3.60;;;7.40;99.90;;;;;;5013374;28;20175;-73
2023/10/18 06:53:05;;;;;;;4.43;3.47;;;7.50;99.90;;;;;;5013398;28;20169;-71
2023/10/18 06:55:55;;;;;;;6.67;3.70;;;7.60;99.90;;;;;;5013430;28;20622;-71
2023/10/18 07:00:51;;;;;;;5.10;3.50;;;7.70;99.90;;;;;;5013408;28;20940;-70
2023/10/18 07:03:27;;;;;;;6.10;4.70;;;7.80;99.90;;;;;;5012957;28;20411;-70
2023/10/18 07:05:56;;;;;;;5.90;3.60;;;7.90;99.90;;;;;;5011702;28;20465;-70
2023/10/18 07:08:40;;;;;;;4.60;3.77;;;8.00;99.90;;;;;;5012428;28;20471;-70
2023/10/18 07:11:08;;;;;;;7.80;4.10;;;8.20;99.90;;;;;;4995333;28;20587;-70
2023/10/18 07:13:34;;;;;;;5.50;4.20;;;8.30;99.90;;;;;;5013017;28;20407;-70
2023/10/18 07:16:01;;;;;;;7.03;4.50;;;8.40;99.90;;;;;;5012938;28;20407;-70
2023/10/18 07:18:27;;;;;;;4.10;3.50;;;8.50;99.90;;;;;;5012934;28;20411;-71
2023/10/18 07:20:59;;;;;;;6.00;4.13;;;8.70;99.90;;;;;;5011527;28;20412;-70
2023/10/18 07:23:26;;;;;;;5.07;3.30;;;8.80;99.90;;;;;;5012899;28;20403;-71
2023/10/18 07:25:52;;;;;;;5.70;4.13;;;8.90;99.90;;;;;;5012734;28;20551;-71
2023/10/18 07:28:21;;;;;;;5.10;3.90;;;9.00;99.90;;;;;;5012764;28;20999;-71
2023/10/18 07:30:47;;;;;;;6.30;4.17;;;9.10;99.90;;;;;;5012831;28;20214;-73
2023/10/18 07:33:15;;;;;;;4.60;4.03;;;9.20;99.90;;;;;;5013059;28;20486;-73
2023/10/18 07:35:45;;;;;;;4.63;4.23;;;9.30;99.90;;;;;;5010472;28;20419;-71
2023/10/18 07:38:11;;;;;;;3.80;3.37;;;9.40;99.90;;;;;;5012720;28;20415;-70
2023/10/18 07:40:40;;;;;;;5.77;3.87;;;9.40;99.90;;;;;;5012478;28;20419;-70
2023/10/18 07:43:12;;;;;;;6.83;4.70;;;9.60;99.90;;;;;;5011320;28;20168;-71
2023/10/18 07:45:39;;;;;;;5.83;4.23;;;9.80;99.90;;;;;;5012547;28;20454;-72
2023/10/18 07:48:05;;;;;;;6.67;4.13;;;10.10;99.90;;;;;;5012295;28;20968;-71
2023/10/18 07:50:34;;;;;;;3.87;3.47;;;10.40;99.90;;;;;;5011401;28;20808;-73
2023/10/18 07:53:00;;;;;;;5.77;4.37;;;10.50;99.90;;;;;;5011391;28;20492;-71
2023/10/18 07:55:36;;;;;;;6.90;5.10;;;10.60;99.90;;;;;;5012423;28;20469;-70
2023/10/18 07:58:06;;;;;;;5.90;4.47;;;10.60;99.90;;;;;;4994751;28;20435;-70
2023/10/18 08:00:32;;;;;;;6.30;4.50;;;10.70;99.90;;;;;;5012186;28;20411;-70
2023/10/18 08:02:59;;;;;;;7.30;5.20;;;10.80;99.90;;;;;;5012282;28;20407;-71
2023/10/18 08:05:31;;;;;;;17.13;5.03;;;11.20;99.90;;;;;;5012219;28;20224;-71
2023/10/18 08:08:08;;;;;;;7.93;5.00;;;11.50;99.90;;;;;;5012204;28;20426;-71
2023/10/18 08:10:35;;;;;;;5.77;5.20;;;11.80;99.90;;;;;;5012107;28;20457;-71
2023/10/18 08:13:06;;;;;;;12.33;3.80;;;12.00;99.90;;;;;;5012181;28;20410;-71
2023/10/18 08:15:36;;;;;;;6.37;4.43;;;12.10;99.90;;;;;;5012293;28;20768;-70
2023/10/18 08:18:14;;;;;;;6.00;4.60;;;12.20;99.90;;;;;;5012064;28;20435;-71
2023/10/18 08:21:06;;;;;;;5.87;4.47;;;12.50;99.90;;;;;;5011981;28;20410;-71
2023/10/18 08:26:03;;;;;;;5.67;4.20;;;12.70;99.90;;;;;;5012241;28;20461;-71
2023/10/18 08:28:38;;;;;;;7.27;4.80;;;12.70;99.90;;;;;;5012039;28;20258;-69
2023/10/18 08:31:16;;;;;;;6.07;4.57;;;12.80;99.90;;;;;;4994209;28;20460;-71
2023/10/18 08:33:42;;;;;;;5.00;4.20;;;12.80;99.90;;;;;;5011966;28;20402;-74
2023/10/18 08:36:13;;;;;;;6.30;4.60;;;12.80;99.90;;;;;;4994433;28;20499;-73
2023/10/18 08:38:41;;;;;;;7.53;5.63;;;12.90;99.90;;;;;;5012197;28;20414;-71
2023/10/18 08:41:14;;;;;;;6.20;4.40;;;13.20;99.90;;;;;;5011899;28;20418;-70
2023/10/18 08:44:05;;;;;;;5.30;4.60;;;13.30;99.90;;;;;;5012067;28;20862;-70
2023/10/18 08:46:39;;;;;;;7.63;5.20;;;14.20;99.90;;;;;;5012329;28;20487;-70
2023/10/18 08:49:06;;;;;;;7.67;4.33;;;15.00;99.90;;;;;;5015474;28;20827;-70
2023/10/18 08:51:32;;;;;;;5.33;4.57;;;15.40;98.50;;;;;;4998149;28;20466;-70
2023/10/18 08:54:01;;;;;;;5.70;3.87;;;15.70;94.80;;;;;;5015398;28;20415;-71
2023/10/18 08:56:32;;;;;;;5.33;4.63;;;16.20;93.50;;;;;;5015295;28;20427;-69
2023/10/18 08:58:58;;;;;;;5.70;4.20;;;16.80;91.20;;;;;;4997818;28;20795;-69
2023/10/18 09:01:25;;;;;;;6.07;4.77;;;17.30;79.60;;;;;;4998071;28;20411;-69
2023/10/18 09:03:51;;;;;;;5.97;5.30;;;17.30;71.90;;;;;;5015473;28;20426;-68
2023/10/18 09:06:30;;;;;;;5.40;4.90;;;17.10;69.90;;;;;;5015293;28;20455;-68
2023/10/18 09:09:09;;;;;;;7.87;4.70;;;17.00;68.80;;;;;;4997836;28;20386;-68
2023/10/18 09:11:37;;;;;;;5.00;4.00;;;16.90;68.40;;;;;;5015605;28;20411;-69
2023/10/18 09:14:22;;;;;;;5.33;4.80;;;17.10;69.30;;;;;;4997856;28;20415;-69
2023/10/18 09:16:48;;;;;;;8.10;5.40;;;17.20;68.50;;;;;;5015043;28;20423;-68
2023/10/18 09:19:14;;;;;;;6.07;5.40;;;17.20;65.80;;;;;;5015100;28;20784;-68
2023/10/18 09:24:14;;;;;;;7.10;4.70;;;17.30;65.00;;;;;;5015349;28;20172;-69
2023/10/18 09:26:43;;;;;;;7.00;4.60;;;17.50;65.50;;;;;;5014808;28;20466;-68
2023/10/18 09:29:09;;;;;;;6.60;5.90;;;17.60;62.60;;;;;;5014958;28;20168;-69
2023/10/18 09:31:38;;;;;;;5.50;4.47;;;17.60;62.30;;;;;;5015332;28;20972;-69
2023/10/18 09:34:10;;;;;;;5.90;4.50;;;18.10;63.80;;;;;;5013676;28;20411;-68
2023/10/18 09:36:42;;;;;;;5.67;4.70;;;19.20;62.20;;;;;;5013387;28;20461;-69
2023/10/18 09:39:09;;;;;;;4.37;3.97;;;21.10;56.20;;;;;;5013457;28;20470;-69
2023/10/18 09:41:38;;;;;;;4.73;4.17;;;22.40;51.70;;;;;;5014655;28;20530;-69
2023/10/18 09:44:04;;;;;;;5.20;4.67;;;24.00;49.10;;;;;;5014780;28;20403;-69
2023/10/18 09:46:31;;;;;;;7.13;5.00;;;25.40;44.50;;;;;;5014472;28;20493;-68
2023/10/18 09:48:58;;;;;;;5.10;4.60;;;26.10;40.10;;;;;;5013471;28;21005;-70
2023/10/18 09:51:24;;;;;;;5.10;4.60;;;26.50;37.60;;;;;;5014517;28;20435;-69
2023/10/18 09:53:50;;;;;;;5.90;4.43;;;26.20;35.20;;;;;;5014568;28;20461;-69
2023/10/18 09:56:24;;;;;;;5.20;4.80;;;26.10;36.10;;;;;;4997004;28;20443;-69
2023/10/18 09:58:51;;;;;;;5.83;4.73;;;26.00;34.80;;;;;;5012351;28;20422;-68
2023/10/18 10:01:27;;;;;;;8.53;4.63;;;26.10;33.70;;;;;;5014211;28;20407;-68
2023/10/18 10:03:56;;;;;;;4.10;3.70;;;26.70;34.70;;;;;;5014511;28;20446;-68
2023/10/18 10:06:24;;;;;;;5.93;5.37;;;27.30;32.40;;;;;;5014125;28;20463;-68
2023/10/18 10:08:55;;;;;;;4.50;4.10;;;28.00;32.90;;;;;;4996850;28;20831;-69
2023/10/18 10:11:22;;;;;;;8.23;5.83;;;28.30;30.50;;;;;;4996714;28;20426;-69
2023/10/18 10:13:52;;;;;;;6.13;4.20;;;28.80;30.70;;;;;;5014254;28;20830;-69
2023/10/18 10:16:24;;;;;;;4.47;4.07;;;29.40;29.70;;;;;;5014066;28;21003;-69
2023/10/18 10:18:52;;;;;;;6.53;3.87;;;29.10;29.00;;;;;;5014171;28;20415;-69
2023/10/18 10:21:21;;;;;;;4.80;4.10;;;29.40;28.90;;;;;;5013925;28;20442;-69
2023/10/18 10:23:55;;;;;;;4.93;4.30;;;30.40;28.90;;;;;;5012946;28;20415;-68
2023/10/18 10:26:27;;;;;;;5.03;4.60;;;30.30;27.40;;;;;;5014086;28;20463;-69
2023/10/18 10:31:53;;;;;;;6.30;4.20;;;30.00;27.20;;;;;;5014080;28;20973;-71
2023/10/18 10:34:26;;;;;;;5.00;4.50;;;30.70;26.80;;;;;;4996139;28;20462;-68
2023/10/18 10:36:53;;;;;;;4.80;4.10;;;30.60;26.30;;;;;;5013547;28;20447;-70
2023/10/18 10:39:30;;;;;;;4.60;3.67;;;30.60;26.20;;;;;;5013615;28;20434;-69
2023/10/18 10:42:00;;;;;;;9.27;4.43;;;31.00;26.40;;;;;;5013722;28;20441;-69
2023/10/18 10:44:30;;;;;;;4.67;4.27;;;30.80;26.10;;;;;;4996324;28;20419;-69
2023/10/18 10:47:30;;;;;;;4.47;4.07;;;30.60;26.70;;;;;;4995815;28;20470;-70
2023/10/18 10:50:00;;;;;;;6.17;4.27;;;30.00;26.00;;;;;;5013364;28;20414;-72
2023/10/18 10:52:29;;;;;;;4.50;4.10;;;29.40;26.00;;;;;;5013467;28;20412;-69
2023/10/18 10:55:28;;;;;;;4.80;4.30;;;28.90;26.50;;;;;;5013420;28;20460;-69
2023/10/18 10:57:55;;;;;;;4.97;3.70;;;27.90;27.00;;;;;;4980430;28;20446;-69
2023/10/18 11:00:49;;;;;;;4.40;3.90;;;27.10;27.60;;;;;;5013120;28;20403;-70
2023/10/18 11:03:29;;;;;;;5.30;4.40;;;26.30;28.70;;;;;;5012017;28;20841;-72
2023/10/18 11:05:58;;;;;;;4.43;3.70;;;25.50;28.90;;;;;;5013078;28;20458;-70
2023/10/18 11:08:24;;;;;;;4.60;3.53;;;24.90;29.50;;;;;;5013201;28;20498;-70
2023/10/18 11:10:50;;;;;;;4.83;4.33;;;24.30;30.50;;;;;;4995220;28;20419;-71
2023/10/18 11:13:22;;;;;;;4.00;3.67;;;23.80;30.70;;;;;;5013029;28;20487;-70
2023/10/18 11:15:50;;;;;;;4.90;4.30;;;23.30;31.60;;;;;;5012987;28;20787;-73
2023/10/18 11:18:22;;;;;;;3.77;3.47;;;23.20;32.00;;;;;;5012972;28;20407;-73
2023/10/18 11:20:58;;;;;;;4.33;3.53;;;23.40;32.60;;;;;;5013120;28;20416;-73
2023/10/18 11:23:26;;;;;;;4.67;3.37;;;24.40;32.90;;;;;;5012979;28;20411;-73
2023/10/18 11:25:56;;;;;;;3.30;3.00;;;25.70;32.00;;;;;;5012744;28;20459;-73
2023/10/18 11:28:28;;;;;;;6.27;3.87;;;26.90;31.30;;;;;;5012801;28;20481;-73
2023/10/18 11:30:56;;;;;;;3.47;2.97;;;28.40;29.60;;;;;;5012632;28;20415;-74
2023/10/18 11:33:36;;;;;;;3.10;2.80;;;29.60;28.30;;;;;;5012725;28;20427;-74
2023/10/18 11:36:02;;;;;;;3.87;3.07;;;30.40;28.10;;;;;;5012577;28;20431;-73
2023/10/18 11:38:34;;;;;;;2.90;2.70;;;30.70;27.10;;;;;;5012611;28;20412;-72
2023/10/18 11:41:04;;;;;;;5.03;3.53;;;30.80;26.70;;;;;;5012546;28;20754;-73
2023/10/18 11:43:39;;;;;;;3.83;3.00;;;30.50;25.70;;;;;;5012490;28;20415;-72
2023/10/18 11:46:05;;;;;;;5.63;3.40;;;29.80;26.40;;;;;;5012556;28;20492;-73
2023/10/18 11:48:36;;;;;;;3.27;2.90;;;29.80;26.00;;;;;;4994755;28;20415;-73
2023/10/18 11:51:06;;;;;;;4.20;3.03;;;29.90;26.60;;;;;;5012324;28;20975;-72
2023/10/18 11:53:32;;;;;;;4.40;3.07;;;30.50;26.40;;;;;;5012553;28;20407;-74
2023/10/18 11:56:11;;;;;;;4.07;3.00;;;30.60;26.00;;;;;;5012226;28;20415;-73
2023/10/18 11:58:40;;;;;;;3.20;2.90;;;30.40;25.90;;;;;;5011066;28;20427;-71
2023/10/18 12:01:19;;;;;;;3.90;2.70;;;30.70;26.20;;;;;;5012259;28;20495;-73
2023/10/18 12:03:46;;;;;;;4.67;3.40;;;31.00;25.80;;;;;;5012293;28;20403;-74
2023/10/18 12:06:12;;;;;;;3.00;2.80;;;31.30;25.30;;;;;;5012072;28;20467;-73
2023/10/18 12:08:47;;;;;;;4.20;3.20;;;31.40;25.40;;;;;;5012303;28;20506;-73
2023/10/18 12:11:14;;;;;;;4.70;2.67;;;31.00;25.00;;;;;;5012238;28;20183;-72
2023/10/18 12:13:40;;;;;;;4.93;3.17;;;31.50;25.50;;;;;;5011895;28;20831;-72
2023/10/18 12:16:08;;;;;;;3.40;3.00;;;31.70;25.20;;;;;;5012067;28;20431;-69
2023/10/18 12:18:35;;;;;;;4.00;2.60;;;31.30;25.00;;;;;;5012138;28;20447;-72
2023/10/18 12:21:01;;;;;;;5.13;2.80;;;30.70;25.50;;;;;;4993914;28;20833;-72
2023/10/18 12:23:26;;;;;;;3.43;3.00;;;30.90;25.90;;;;;;5012203;28;20419;-73
2023/10/18 12:25:52;;;;;;;5.30;2.20;;;30.50;26.00;;;;;;5011958;28;20458;-71
2023/10/18 12:28:19;;;;;;;3.17;2.87;;;30.50;26.20;;;;;;5010794;28;20267;-71
2023/10/18 12:30:52;;;;;;;3.57;3.27;;;29.90;26.00;;;;;;4994209;28;20172;-72
2023/10/18 12:33:27;;;;;;;4.37;2.90;;;29.90;26.40;;;;;;5011985;28;20434;-73
2023/10/18 12:35:56;;;;;;;3.63;2.80;;;29.30;26.30;;;;;;5011872;28;20980;-72
2023/10/18 12:38:31;;;;;;;2.83;2.10;;;28.80;27.20;;;;;;5011961;28;20407;-73
2023/10/18 12:43:45;;;;;;;5.20;1.97;;;26.40;28.20;;;;;;5011985;28;20543;-72
2023/10/18 12:46:15;;;;;;;2.20;2.00;;;25.20;29.60;;;;;;4994037;28;20465;-71
2023/10/18 12:48:42;;;;;;;3.53;2.57;;;24.70;30.50;;;;;;5011901;28;20403;-72
2023/10/18 12:51:09;;;;;;;3.93;2.70;;;24.30;30.90;;;;;;5011695;28;20414;-73
2023/10/18 12:53:47;;;;;;;2.93;2.63;;;23.80;32.30;;;;;;5011907;28;20415;-71
2023/10/18 12:58:48;;;;;;;2.93;2.73;;;23.90;31.90;;;;;;5012225;28;20464;-72
2023/10/18 13:01:14;;;;;;;3.80;2.50;;;23.20;32.20;;;;;;4994135;28;20420;-71
2023/10/18 13:03:56;;;;;;;2.93;2.50;;;22.70;32.70;;;;;;5011813;28;20509;-72
2023/10/18 13:06:30;;;;;;;3.53;2.50;;;22.00;33.30;;;;;;5010423;28;20842;-71
2023/10/18 13:12:07;;;;;;;3.27;2.80;;;20.50;35.90;;;;;;5011535;28;20544;-71
2023/10/18 13:14:34;;;;;;;2.90;1.90;;;20.20;37.20;;;;;;4994228;28;20419;-71
2023/10/18 13:17:03;;;;;;;3.43;1.80;;;20.50;38.10;;;;;;5011468;28;20801;-71
2023/10/18 13:19:28;;;;;;;4.17;2.73;;;20.70;37.60;;;;;;4993819;28;20423;-72
2023/10/18 13:21:55;;;;;;;7.63;2.47;;;20.80;37.30;;;;;;5010508;28;20502;-72
2023/10/18 13:26:47;;;;;;;3.10;2.63;;;20.20;37.60;;;;;;5011357;28;20462;-72
2023/10/18 13:31:45;;;;;;;3.53;2.80;;;19.40;38.60;;;;;;5011539;28;20427;-72
2023/10/18 13:34:18;;;;;;;4.07;1.90;;;19.10;39.10;;;;;;4995643;28;20411;-73
2023/10/18 13:36:47;;;;;;;2.40;2.20;;;19.30;40.40;;;;;;5014985;28;20457;-72
2023/10/18 13:39:14;;;;;;;2.97;2.70;;;19.40;39.80;;;;;;4997285;28;20891;-71
2023/10/18 13:41:41;;;;;;;2.53;2.33;;;19.20;39.90;;;;;;5014861;28;20407;-71
2023/10/18 13:44:08;;;;;;;3.63;2.50;;;19.10;40.30;;;;;;4997245;28;20443;-72
2023/10/18 13:46:34;;;;;;;2.57;2.10;;;18.90;40.60;;;;;;5013300;28;20466;-71
2023/10/18 13:48:59;;;;;;;7.53;2.70;;;18.80;41.20;;;;;;4997661;28;20918;-72
2023/10/18 13:51:26;;;;;;;5.40;2.53;;;18.80;41.80;;;;;;5014596;28;20411;-71
2023/10/18 13:53:52;;;;;;;8.87;2.60;;;18.70;41.40;;;;;;5014776;28;20512;-72
2023/10/18 13:56:20;;;;;;;6.60;2.70;;;18.50;41.60;;;;;;5013332;28;20435;-71